Time;durP1;ratioP1;P1;durP2;ratioP2;P2;SDS_P1;SDS_P2;PMS_P1;PMS_P2;Temp;Humidity;BMP_temperature;BMP_pressure;BME280_temperature;BME280_humidity;BME280_pressure;Samples;Min_cycle;Max_cycle;Signal;HPM_P1;HPM_P2
2022/05/23 00:00:35;;;;;;;11.50;7.80;;;;;;;7.85;70.02;97636.02;106324;1277;24443;-91
2022/05/23 00:03:04;;;;;;;10.30;7.60;;;;;;;7.92;70.09;97641.23;106029;1278;25230;-90
2022/05/23 00:05:32;;;;;;;10.90;7.90;;;;;;;8.01;70.35;97639.08;105952;1277;22648;-89
2022/05/23 00:08:02;;;;;;;15.20;8.30;;;;;;;8.09;70.22;97639.52;106067;1278;25391;-91
2022/05/23 00:10:30;;;;;;;10.30;7.10;;;;;;;8.11;70.26;97637.04;106100;1276;22865;-88
2022/05/23 00:12:58;;;;;;;9.00;7.10;;;;;;;8.15;70.46;97639.08;106313;1277;22600;-87
2022/05/23 00:15:26;;;;;;;9.90;8.00;;;;;;;8.16;70.36;97634.64;107166;1277;25424;-90
2022/05/23 00:17:55;;;;;;;11.40;8.00;;;;;;;8.16;70.66;97632.70;106289;1276;25375;-87
2022/05/23 00:20:26;;;;;;;10.70;8.60;;;;;;;8.16;70.90;97631.10;106248;1278;22745;-89
2022/05/23 00:22:54;;;;;;;9.80;8.50;;;;;;;8.16;71.28;97632.62;106300;1277;22596;-85
2022/05/23 00:25:22;;;;;;;12.30;8.80;;;;;;;8.16;71.09;97634.33;106180;1276;24490;-90
2022/05/23 00:27:50;;;;;;;11.20;8.60;;;;;;;8.17;71.11;97637.73;106198;1277;22535;-89
2022/05/23 00:30:23;;;;;;;14.30;8.80;;;;;;;8.20;71.02;97638.84;106100;1277;24373;-86
2022/05/23 00:35:48;;;;;;;11.10;9.30;;;;;;;8.17;71.26;97636.77;105973;1277;25393;-84
2022/05/23 00:38:17;;;;;;;12.20;9.60;;;;;;;8.15;71.20;97641.79;105978;1278;22649;-84
2022/05/23 00:43:13;;;;;;;14.20;10.60;;;;;;;8.10;71.42;97649.05;105942;1277;23942;-84
2022/05/23 00:44:02;;;;;;;13.30;10.70;;;;;;;8.03;72.04;97651.02;106031;1278;22636;-83
2022/05/23 00:46:30;;;;;;;15.20;10.60;;;;;;;8.00;71.79;97651.27;106087;1278;22540;-83
2022/05/23 00:49:01;;;;;;;12.60;10.80;;;;;;;7.99;72.37;97656.27;105951;1278;25448;-85
2022/05/23 00:51:31;;;;;;;13.70;10.90;;;;;;;8.02;72.64;97652.54;106075;1278;24439;-84
2022/05/23 00:54:06;;;;;;;14.00;11.50;;;;;;;8.01;72.75;97652.61;106058;1278;22626;-85
2022/05/23 00:56:47;;;;;;;13.50;11.40;;;;;;;7.99;72.64;97653.92;106044;1277;25260;-85
2022/05/23 00:59:27;;;;;;;14.40;11.80;;;;;;;7.98;72.78;97654.64;105966;1277;24213;-85
2022/05/23 01:01:57;;;;;;;12.80;11.50;;;;;;;7.96;72.56;97651.27;106052;1278;24233;-82
2022/05/23 01:04:34;;;;;;;14.90;11.70;;;;;;;7.95;72.60;97654.02;106009;1276;22602;-83
2022/05/23 01:07:04;;;;;;;14.80;13.00;;;;;;;7.94;72.73;97653.13;106035;1276;25546;-84
2022/05/23 01:09:33;;;;;;;15.10;13.60;;;;;;;7.92;72.80;97653.30;106132;1277;24291;-84
2022/05/23 01:12:01;;;;;;;15.60;13.00;;;;;;;7.89;72.93;97655.27;106034;1277;25399;-84
2022/05/23 01:15:00;;;;;;;12.60;11.00;;;;;;;7.92;72.96;97657.06;106010;1279;25356;-84
2022/05/23 01:17:29;;;;;;;11.80;10.40;;;;;;;7.94;72.80;97663.33;105835;1278;22761;-84
2022/05/23 01:20:02;;;;;;;11.60;10.30;;;;;;;7.95;72.84;97660.31;105974;1278;22639;-87
2022/05/23 01:22:41;;;;;;;12.70;10.70;;;;;;;7.95;73.00;97662.89;106001;1278;22601;-86
2022/05/23 01:25:28;;;;;;;15.90;12.90;;;;;;;7.92;73.61;97661.95;105954;1278;25565;-84
2022/05/23 01:27:56;;;;;;;13.80;11.20;;;;;;;7.86;73.34;97660.67;105980;1279;24264;-83
2022/05/23 01:30:24;;;;;;;14.20;10.10;;;;;;;7.86;73.42;97667.34;106068;1276;22723;-86
2022/05/23 01:33:16;;;;;;;11.50;9.70;;;;;;;7.87;73.34;97660.66;106022;1278;22573;-86
2022/05/23 01:35:45;;;;;;;12.00;9.80;;;;;;;7.84;73.03;97659.91;106046;1278;22563;-87
2022/05/23 01:38:13;;;;;;;11.10;9.80;;;;;;;7.76;73.02;97661.27;106040;1278;22617;-86
2022/05/23 01:40:50;;;;;;;11.90;10.40;;;;;;;7.65;72.89;97658.88;106010;1276;22693;-87
2022/05/23 01:43:24;;;;;;;11.70;10.50;;;;;;;7.52;72.87;97656.34;106452;1278;22730;-84
2022/05/23 01:46:15;;;;;;;14.10;11.00;;;;;;;7.39;72.96;97657.06;106050;1277;22872;-86
2022/05/23 01:49:04;;;;;;;12.80;10.90;;;;;;;7.36;73.37;97655.27;105712;1278;22655;-85
2022/05/23 01:51:32;;;;;;;11.80;10.50;;;;;;;7.29;73.18;97655.46;106181;1276;22733;-87
2022/05/23 01:54:00;;;;;;;13.30;9.70;;;;;;;7.20;73.71;97655.96;106318;1278;22890;-84
2022/05/23 01:56:29;;;;;;;13.40;11.00;;;;;;;7.10;73.73;97650.54;106416;1276;25235;-80
2022/05/23 02:01:46;;;;;;;15.30;11.70;;;;;;;6.91;73.89;97650.75;106102;1278;25232;-84
2022/05/23 02:04:28;;;;;;;11.00;9.90;;;;;;;6.87;73.81;97647.52;106118;1278;22566;-84
2022/05/23 02:06:57;;;;;;;11.70;9.90;;;;;;;6.81;73.76;97653.13;106017;1278;22627;-84
2022/05/23 02:09:27;;;;;;;12.80;11.00;;;;;;;6.77;73.99;97652.62;106141;1278;22709;-84
2022/05/23 02:12:17;;;;;;;13.10;10.80;;;;;;;6.72;74.02;97651.91;106054;1278;22546;-85
2022/05/23 02:14:49;;;;;;;13.50;12.10;;;;;;;6.66;74.11;97649.23;105991;1278;26691;-83
2022/05/23 02:17:26;;;;;;;14.10;11.60;;;;;;;6.63;74.42;97645.95;106140;1278;22697;-85
2022/05/23 02:19:54;;;;;;;13.20;10.70;;;;;;;6.67;74.41;97647.71;106260;1276;24226;-85
2022/05/23 02:22:22;;;;;;;13.10;10.50;;;;;;;6.68;74.42;97644.30;105903;1279;23660;-86
2022/05/23 02:24:56;;;;;;;12.50;11.20;;;;;;;6.67;74.03;97640.66;106061;1278;22628;-86
2022/05/23 02:27:24;;;;;;;12.30;11.10;;;;;;;6.63;74.28;97644.77;105952;1279;25334;-85
2022/05/23 02:29:52;;;;;;;13.30;11.80;;;;;;;6.57;74.27;97642.98;106007;1278;22564;-85
2022/05/23 02:32:20;;;;;;;13.60;11.80;;;;;;;6.50;74.32;97639.49;105738;1278;22541;-84
2022/05/23 02:34:48;;;;;;;16.50;12.50;;;;;;;6.42;74.57;97643.93;106017;1278;22887;-84
2022/05/23 02:37:16;;;;;;;17.00;13.50;;;;;;;6.39;74.46;97646.31;106011;1278;22779;-85
2022/05/23 02:39:46;;;;;;;12.80;10.90;;;;;;;6.37;74.52;97643.64;106031;1278;22597;-85
2022/05/23 02:42:17;;;;;;;13.80;11.40;;;;;;;6.35;74.64;97647.56;106071;1278;22546;-85
2022/05/23 02:44:46;;;;;;;15.10;13.50;;;;;;;6.31;74.60;97646.08;105932;1278;24258;-86
2022/05/23 02:47:19;;;;;;;19.30;17.50;;;;;;;6.29;75.07;97643.00;106018;1278;25356;-86
2022/05/23 02:49:48;;;;;;;18.30;16.50;;;;;;;6.28;74.94;97640.38;105978;1277;22702;-84
2022/05/23 02:52:35;;;;;;;17.20;14.80;;;;;;;6.27;74.84;97639.25;106016;1278;22782;-87
2022/05/23 02:55:19;;;;;;;16.70;15.00;;;;;;;6.28;74.99;97639.74;105969;1279;22738;-86
2022/05/23 02:57:48;;;;;;;18.20;15.80;;;;;;;6.30;75.18;97641.22;106080;1277;22583;-85
2022/05/23 03:00:19;;;;;;;17.20;15.40;;;;;;;6.33;75.31;97644.58;106045;1278;22569;-86
2022/05/23 03:03:02;;;;;;;;;;;;;;;6.35;75.30;97644.20;106048;1278;22850;-84
2022/05/23 03:05:53;;;;;;;19.50;17.50;;;;;;;6.32;75.25;97641.00;105993;1277;25371;-86
2022/05/23 03:08:24;;;;;;;16.70;15.00;;;;;;;6.26;74.96;97644.84;106014;1278;26643;-85
2022/05/23 03:10:56;;;;;;;16.10;14.40;;;;;;;6.22;75.27;97643.85;106021;1278;22545;-86
2022/05/23 03:13:26;;;;;;;15.40;13.90;;;;;;;6.16;75.75;97646.13;105859;1278;24398;-85
2022/05/23 03:15:55;;;;;;;15.00;13.50;;;;;;;6.11;75.76;97652.79;105807;1278;22618;-85
2022/05/23 03:18:24;;;;;;;16.90;15.40;;;;;;;6.04;76.24;97650.84;105933;1277;22605;-85
2022/05/23 03:21:01;;;;;;;17.10;15.60;;;;;;;5.98;76.14;97649.52;105956;1277;22572;-85
2022/05/23 03:29:09;;;;;;;14.50;12.60;;;;;;;6.01;76.66;97653.80;105969;1277;22669;-85
2022/05/23 03:31:38;;;;;;;17.30;12.70;;;;;;;6.07;76.68;97648.10;106098;1278;22553;-85
2022/05/23 03:34:08;;;;;;;13.30;12.10;;;;;;;6.14;76.51;97645.54;106118;1278;22556;-84
2022/05/23 03:36:36;;;;;;;13.80;12.40;;;;;;;6.21;76.48;97642.61;106425;1278;26669;-86
2022/05/23 03:39:04;;;;;;;13.60;12.30;;;;;;;6.24;76.54;97643.03;106087;1278;22572;-84
2022/05/23 03:41:33;;;;;;;13.90;12.60;;;;;;;6.20;76.53;97644.86;106046;1278;22529;-83
2022/05/23 03:44:02;;;;;;;13.40;12.10;;;;;;;6.24;76.69;97648.05;105836;1278;22685;-89
2022/05/23 03:46:30;;;;;;;13.40;12.00;;;;;;;6.29;76.87;97648.34;105766;1278;25286;-87
2022/05/23 03:48:58;;;;;;;12.80;11.50;;;;;;;6.30;77.29;97654.50;105855;1277;25267;-87
2022/05/23 03:51:26;;;;;;;13.70;12.30;;;;;;;6.33;77.26;97654.21;105862;1277;22551;-86
2022/05/23 03:53:56;;;;;;;15.00;13.40;;;;;;;6.33;76.80;97658.88;106059;1278;24328;-86
2022/05/23 03:56:24;;;;;;;14.50;13.00;;;;;;;6.35;77.05;97664.86;106068;1278;22597;-87
2022/05/23 03:58:56;;;;;;;13.90;12.50;;;;;;;6.41;77.20;97664.70;106113;1278;25365;-85
2022/05/23 04:01:28;;;;;;;16.10;14.40;;;;;;;6.51;77.48;97668.50;106038;1276;22709;-86
2022/05/23 04:03:59;;;;;;;36.60;33.50;;;;;;;6.64;77.50;97668.62;106051;1277;22553;-86
2022/05/23 04:06:35;;;;;;;18.40;16.70;;;;;;;6.76;77.62;97664.42;106069;1278;22637;-86
2022/05/23 04:09:06;;;;;;;16.70;15.10;;;;;;;6.85;77.49;97672.70;106165;1277;22547;-87
2022/05/23 04:11:38;;;;;;;16.80;15.10;;;;;;;6.96;77.54;97672.94;106431;1277;22563;-85
2022/05/23 04:14:06;;;;;;;14.60;13.00;;;;;;;7.07;77.60;97673.27;106762;1276;23079;-86
2022/05/23 04:16:38;;;;;;;13.80;12.50;;;;;;;7.20;77.61;97677.18;106033;1277;22585;-87
2022/05/23 04:19:08;;;;;;;15.70;14.20;;;;;;;7.33;77.68;97675.73;106060;1276;22628;-85
2022/05/23 04:21:44;;;;;;;15.30;13.80;;;;;;;7.47;77.87;97674.41;106057;1277;22548;-87
2022/05/23 04:24:19;;;;;;;15.70;14.10;;;;;;;7.58;77.87;97679.34;106114;1277;22608;-85
2022/05/23 04:26:56;;;;;;;15.20;13.60;;;;;;;7.69;77.82;97680.56;105973;1277;26795;-86
2022/05/23 04:29:25;;;;;;;15.10;13.30;;;;;;;7.80;77.80;97680.50;106139;1277;22773;-87
2022/05/23 04:31:53;;;;;;;13.40;12.10;;;;;;;7.92;77.70;97684.05;106159;1277;23831;-87
2022/05/23 04:37:15;;;;;;;15.00;12.60;;;;;;;8.16;77.71;97685.33;106550;1277;22645;-87
2022/05/23 04:39:47;;;;;;;13.50;12.00;;;;;;;8.25;77.81;97689.17;106624;1277;22697;-85
2022/05/23 04:42:15;;;;;;;19.90;12.60;;;;;;;8.34;77.86;97691.64;107372;1276;22768;-86
2022/05/23 04:44:44;;;;;;;12.80;11.10;;;;;;;8.48;78.04;97687.08;107656;1277;22489;-86
2022/05/23 04:50:04;;;;;;;12.20;10.90;;;;;;;8.83;78.27;97685.81;109533;1277;22574;-86
2022/05/23 04:53:04;;;;;;;13.20;10.90;;;;;;;8.89;78.80;97690.94;109407;1277;23822;-86
2022/05/23 04:55:36;;;;;;;12.60;11.20;;;;;;;8.96;78.45;97689.82;109248;1277;22676;-86
2022/05/23 04:58:05;;;;;;;12.00;10.10;;;;;;;9.01;78.26;97687.41;109107;1277;22491;-87
2022/05/23 05:00:34;;;;;;;11.70;10.40;;;;;;;9.13;78.07;97684.38;108541;1276;22569;-87
2022/05/23 05:03:09;;;;;;;12.10;9.40;;;;;;;9.32;77.93;97685.61;108406;1276;26674;-88
2022/05/23 05:05:45;;;;;;;10.80;9.80;;;;;;;9.44;77.95;97681.91;106137;1277;22717;-87
2022/05/23 05:08:20;;;;;;;10.40;9.30;;;;;;;9.54;78.04;97680.48;106069;1276;22558;-88
2022/05/23 05:10:51;;;;;;;9.80;8.70;;;;;;;9.64;78.10;97676.64;106158;1278;22566;-88
2022/05/23 05:13:19;;;;;;;9.80;8.60;;;;;;;9.75;78.01;97679.18;106056;1276;22619;-87
2022/05/23 05:15:47;;;;;;;10.30;8.80;;;;;;;9.86;77.92;97675.52;106306;1277;25259;-87
2022/05/23 05:18:31;;;;;;;9.50;8.60;;;;;;;10.00;77.55;97677.84;106752;1277;25452;-88
2022/05/23 05:21:19;;;;;;;11.50;8.00;;;;;;;10.09;77.32;97681.14;106172;1278;22549;-87
2022/05/23 05:24:06;;;;;;;9.80;7.90;;;;;;;10.12;77.39;97684.77;106089;1278;25428;-86
2022/05/23 05:26:38;;;;;;;8.60;7.50;;;;;;;10.19;77.18;97690.33;106165;1277;25369;-87
2022/05/23 05:29:06;;;;;;;8.70;7.80;;;;;;;10.24;76.73;97695.77;106017;1277;24231;-87
2022/05/23 05:31:48;;;;;;;9.80;7.70;;;;;;;10.29;76.93;97694.42;106048;1277;22556;-86
2022/05/23 05:34:21;;;;;;;11.50;7.20;;;;;;;10.41;76.87;97693.61;106063;1277;24276;-84
2022/05/23 05:36:55;;;;;;;9.20;7.20;;;;;;;10.53;76.59;97693.02;106122;1278;24368;-85
2022/05/23 05:39:26;;;;;;;8.10;6.10;;;;;;;10.63;76.44;97691.95;106113;1277;22865;-87
2022/05/23 05:42:00;;;;;;;7.60;6.30;;;;;;;10.72;76.02;97693.03;106165;1277;22568;-87
2022/05/23 05:44:39;;;;;;;8.40;6.70;;;;;;;10.80;75.78;97691.77;106128;1277;22564;-85
2022/05/23 05:47:10;;;;;;;10.80;6.40;;;;;;;10.89;75.24;97696.57;106134;1278;22618;-87
2022/05/23 05:50:00;;;;;;;7.20;6.00;;;;;;;11.05;74.82;97693.77;105972;1277;22621;-87
2022/05/23 05:52:31;;;;;;;9.40;6.80;;;;;;;11.15;73.27;97699.35;106158;1277;22593;-87
2022/05/23 05:55:06;;;;;;;10.60;7.50;;;;;;;11.20;73.96;97699.77;106123;1277;22620;-87
2022/05/23 05:57:34;;;;;;;8.90;6.60;;;;;;;11.28;73.92;97697.03;106147;1278;22716;-86
2022/05/23 06:00:07;;;;;;;7.90;5.50;;;;;;;11.34;73.69;97699.00;106219;1277;25250;-85
2022/05/23 06:02:44;;;;;;;9.40;6.00;;;;;;;11.46;73.45;97698.98;106071;1277;22561;-87
2022/05/23 06:05:15;;;;;;;6.90;5.50;;;;;;;11.58;73.32;97695.80;106059;1277;23416;-86
2022/05/23 06:14:03;;;;;;;9.90;7.20;;;;;;;11.81;72.49;97703.02;106044;1276;22760;-86
2022/05/23 06:16:38;;;;;;;8.30;6.00;;;;;;;11.94;72.59;97701.13;105877;1277;22573;-87
2022/05/23 06:19:14;;;;;;;8.70;6.40;;;;;;;12.09;71.91;97702.23;105976;1277;24281;-87
2022/05/23 06:21:52;;;;;;;12.10;6.40;;;;;;;12.19;71.65;97707.44;106005;1277;23990;-86
2022/05/23 06:24:21;;;;;;;10.10;6.30;;;;;;;12.30;69.97;97708.55;106004;1277;24232;-87
2022/05/23 06:26:53;;;;;;;10.50;6.70;;;;;;;12.35;69.03;97707.77;105879;1277;22590;-87
2022/05/23 06:29:40;;;;;;;18.10;7.60;;;;;;;12.35;67.78;97709.41;105955;1277;22605;-86
2022/05/23 06:32:28;;;;;;;13.30;7.70;;;;;;;12.37;68.22;97713.15;105887;1277;25407;-85
2022/05/23 06:34:56;;;;;;;13.80;8.60;;;;;;;12.47;67.23;97715.58;106024;1277;22494;-88
2022/05/23 06:37:28;;;;;;;11.00;7.50;;;;;;;12.45;65.85;97717.52;105846;1277;22526;-84
2022/05/23 06:40:11;;;;;;;11.50;7.00;;;;;;;12.45;65.79;97714.30;106023;1277;25345;-85
2022/05/23 06:43:02;;;;;;;9.20;6.20;;;;;;;12.51;67.02;97709.84;105914;1277;22568;-86
2022/05/23 06:45:49;;;;;;;8.70;6.20;;;;;;;12.60;66.99;97706.47;106008;1277;22794;-84
2022/05/23 06:48:42;;;;;;;7.80;5.70;;;;;;;12.68;65.37;97710.71;105993;1277;22780;-86
2022/05/23 06:51:31;;;;;;;8.90;6.20;;;;;;;12.85;66.38;97715.85;105950;1277;25307;-85
2022/05/23 06:54:02;;;;;;;11.20;6.80;;;;;;;12.98;66.05;97715.75;106084;1277;22688;-87
2022/05/23 06:56:52;;;;;;;9.50;5.90;;;;;;;13.12;65.83;97712.82;106369;1277;22601;-87
2022/05/23 06:59:22;;;;;;;10.20;6.30;;;;;;;13.22;65.86;97711.63;106942;1277;22548;-86
2022/05/23 07:01:50;;;;;;;7.90;5.50;;;;;;;13.36;63.57;97707.48;106492;1276;23183;-88
2022/05/23 07:13:34;;;;;;;9.00;5.80;;;;;;;13.46;61.60;97696.50;106038;1277;22566;-86
2022/05/23 07:16:02;;;;;;;12.50;5.70;;;;;;;13.52;60.97;97692.11;106328;1277;22554;-88
2022/05/23 07:18:31;;;;;;;7.60;4.90;;;;;;;13.64;62.44;97684.34;106245;1278;22719;-85
2022/05/23 07:21:00;;;;;;;6.30;3.50;;;;;;;13.80;60.40;97686.94;106220;1278;22571;-85
2022/05/23 07:23:30;;;;;;;7.00;3.70;;;;;;;13.88;58.14;97686.95;106167;1278;22655;-84
2022/05/23 07:26:10;;;;;;;4.30;2.50;;;;;;;14.03;59.77;97679.84;106300;1277;22629;-83
2022/05/23 07:28:50;;;;;;;3.90;3.30;;;;;;;14.05;53.37;97678.91;106387;1277;22514;-84
2022/05/23 07:31:21;;;;;;;5.40;3.50;;;;;;;14.03;54.30;97680.10;106287;1277;22571;-84
2022/05/23 07:33:50;;;;;;;5.40;3.30;;;;;;;14.05;53.39;97673.48;106314;1276;24271;-83
2022/05/23 07:36:20;;;;;;;6.10;3.60;;;;;;;13.99;52.49;97671.39;106108;1277;22553;-83
2022/05/23 07:38:49;;;;;;;5.80;4.10;;;;;;;13.99;54.91;97667.77;106099;1278;22557;-85
2022/05/23 07:41:36;;;;;;;16.80;5.40;;;;;;;14.21;56.43;97662.00;106110;1277;25470;-85
2022/05/23 07:44:06;;;;;;;5.00;3.30;;;;;;;14.40;55.09;97665.00;106132;1277;22620;-84
2022/05/23 07:46:35;;;;;;;5.50;2.90;;;;;;;14.51;55.13;97663.80;106250;1277;25421;-83
2022/05/23 07:49:05;;;;;;;3.90;3.20;;;;;;;14.54;52.66;97660.69;105966;1277;24303;-84
2022/05/23 07:51:33;;;;;;;4.60;3.30;;;;;;;14.53;53.63;97657.54;106537;1277;22562;-84
2022/05/23 08:03:29;;;;;;;5.20;4.30;;;;;;;14.69;53.78;97647.73;106169;1277;22749;-84
2022/05/23 08:06:03;;;;;;;3.90;3.50;;;;;;;14.85;53.75;97650.88;106689;1277;23960;-84
2022/05/23 08:08:31;;;;;;;4.30;2.70;;;;;;;15.06;53.74;97644.19;106552;1277;25401;-86
2022/05/23 08:11:01;;;;;;;2.90;2.30;;;;;;;15.21;50.81;97638.73;106600;1277;22623;-85
2022/05/23 08:13:37;;;;;;;4.10;2.70;;;;;;;15.16;49.20;97636.86;106536;1277;22559;-83
2022/05/23 08:16:05;;;;;;;3.50;2.50;;;;;;;15.15;49.95;97634.42;106205;1277;22650;-83
2022/05/23 08:18:34;;;;;;;3.70;2.60;;;;;;;15.29;51.50;97632.96;106029;1276;24292;-83
2022/05/23 08:21:04;;;;;;;4.60;2.30;;;;;;;15.58;51.99;97630.66;106023;1277;22712;-83
2022/05/23 08:23:38;;;;;;;2.90;2.50;;;;;;;15.75;49.58;97632.05;106246;1277;22714;-83
2022/05/23 08:26:17;;;;;;;4.30;3.00;;;;;;;15.88;49.53;97625.98;106303;1278;22577;-82
2022/05/23 08:28:47;;;;;;;3.90;2.70;;;;;;;16.00;48.28;97619.29;106310;1277;22792;-82
2022/05/23 08:31:17;;;;;;;4.20;2.50;;;;;;;16.14;49.51;97623.94;106210;1277;22722;-82
2022/05/23 08:33:57;;;;;;;4.20;2.20;;;;;;;16.37;49.46;97617.40;106386;1277;22578;-82
2022/05/23 08:36:27;;;;;;;17.00;4.20;;;;;;;16.55;49.20;97616.52;106174;1277;22560;-82
2022/05/23 08:38:55;;;;;;;3.80;2.80;;;;;;;16.72;49.67;97619.11;106277;1277;24818;-80
2022/05/23 08:41:39;;;;;;;3.00;2.40;;;;;;;16.86;48.62;97621.31;106208;1277;22673;-82
2022/05/23 08:44:43;;;;;;;4.40;2.10;;;;;;;17.05;49.98;97621.38;106264;1277;22548;-82
2022/05/23 08:47:41;;;;;;;7.50;2.20;;;;;;;17.33;49.73;97612.63;106204;1277;22579;-81
2022/05/23 08:50:16;;;;;;;3.50;2.40;;;;;;;17.55;48.25;97610.98;105944;1278;22620;-82
2022/05/23 08:53:04;;;;;;;3.50;2.30;;;;;;;17.68;48.71;97610.14;106144;1277;23358;-82
2022/05/23 08:55:46;;;;;;;2.90;2.00;;;;;;;17.79;48.91;97616.73;106122;1277;22704;-81
2022/05/23 08:58:52;;;;;;;3.80;2.00;;;;;;;17.93;48.81;97612.62;106092;1277;25423;-83
2022/05/23 09:01:44;;;;;;;3.70;1.90;;;;;;;17.98;49.06;97607.14;106020;1277;24278;-82
2022/05/23 09:04:42;;;;;;;3.20;2.30;;;;;;;18.12;47.21;97605.69;106083;1277;22553;-81
2022/05/23 09:07:19;;;;;;;3.50;1.80;;;;;;;18.18;47.63;97604.95;105808;1278;23460;-81
2022/05/23 09:09:48;;;;;;;2.30;2.00;;;;;;;18.25;46.54;97606.03;106141;1277;24273;-83
2022/05/23 09:12:15;;;;;;;2.80;1.90;;;;;;;18.28;47.66;97607.13;106161;1277;22559;-82
2022/05/23 09:14:45;;;;;;;1.70;1.50;;;;;;;18.46;47.24;97606.89;106110;1277;22708;-82
2022/05/23 09:17:21;;;;;;;2.70;2.00;;;;;;;18.56;45.99;97601.55;106038;1277;24380;-83
2022/05/23 09:20:05;;;;;;;2.90;2.20;;;;;;;18.73;46.03;97605.58;106003;1276;23170;-83
2022/05/23 09:22:43;;;;;;;2.80;2.10;;;;;;;18.87;45.36;97609.08;106158;1277;22627;-82
2022/05/23 09:25:18;;;;;;;3.00;2.00;;;;;;;18.97;44.97;97606.31;106126;1277;22702;-83
2022/05/23 09:28:06;;;;;;;3.80;2.00;;;;;;;18.97;44.20;97603.32;106054;1277;23637;-82
2022/05/23 09:30:36;;;;;;;3.90;2.20;;;;;;;18.97;43.28;97599.98;106165;1277;25291;-83
2022/05/23 09:33:09;;;;;;;2.60;1.70;;;;;;;18.82;44.25;97600.77;106077;1277;22556;-83
2022/05/23 09:35:50;;;;;;;1.90;1.60;;;;;;;18.90;44.75;97604.67;106155;1277;22754;-82
2022/05/23 09:38:29;;;;;;;3.10;1.80;;;;;;;19.05;43.97;97587.25;106189;1277;26615;-83
2022/05/23 09:47:44;;;;;;;1.50;1.40;;;;;;;19.22;44.53;97588.73;106109;1277;22665;-85
2022/05/23 09:47:44;;;;;;;2.60;1.80;;;;;;;19.63;42.57;97589.52;106107;1277;22622;-84
2022/05/23 09:50:27;;;;;;;1.70;1.50;;;;;;;19.71;41.64;97587.72;106208;1277;25363;-84
2022/05/23 09:53:28;;;;;;;3.30;1.70;;;;;;;19.60;41.31;97583.29;106070;1277;23438;-81
2022/05/23 09:56:26;;;;;;;3.80;1.90;;;;;;;19.63;42.06;97586.39;105795;1278;22568;-83
2022/05/23 09:58:57;;;;;;;8.10;2.10;;;;;;;19.76;41.25;97587.02;105856;1277;22707;-89
2022/05/23 10:01:28;;;;;;;1.80;1.50;;;;;;;19.85;41.73;97581.84;105969;1277;22557;-86
2022/05/23 10:03:56;;;;;;;2.10;1.70;;;;;;;19.80;40.71;97580.04;106122;1277;24207;-82
2022/05/23 10:06:46;;;;;;;1.80;1.60;;;;;;;19.86;41.89;97583.58;106104;1277;22782;-82
2022/05/23 10:09:53;;;;;;;2.60;2.30;;;;;;;19.88;41.28;97575.41;106102;1277;26850;-84
2022/05/23 10:12:45;;;;;;;2.20;2.00;;;;;;;19.78;42.18;97569.08;105528;1282;24227;-80
2022/05/23 10:15:28;;;;;;;7.10;2.10;;;;;;;19.84;42.12;97575.09;105437;1284;22576;-79
2022/05/23 10:18:07;;;;;;;1.50;1.40;;;;;;;19.91;41.46;97570.29;105337;1282;22572;-80
2022/05/23 10:20:43;;;;;;;4.70;2.00;;;;;;;20.02;40.50;97570.91;105372;1284;306466;-80
2022/05/23 10:23:33;;;;;;;3.20;2.00;;;;;;;20.00;40.57;97571.52;105757;1282;22626;-81
2022/05/23 10:26:08;;;;;;;5.20;2.10;;;;;;;20.02;41.32;97574.50;105779;1282;25418;-81
2022/05/23 10:29:20;;;;;;;3.20;1.60;;;;;;;19.92;41.22;97573.81;105992;1283;22576;-80
2022/05/23 10:31:54;;;;;;;1.80;1.60;;;;;;;20.02;41.12;97572.02;105857;1282;22671;-79
2022/05/23 10:34:35;;;;;;;2.30;1.80;;;;;;;20.25;41.19;97576.71;105826;1282;22631;-80
2022/05/23 10:37:19;;;;;;;3.20;1.80;;;;;;;20.36;40.55;97574.91;105697;1282;22666;-82
2022/05/23 10:42:38;;;;;;;1.80;1.50;;;;;;;20.38;40.22;97571.03;105492;1282;22551;-80
2022/05/23 10:45:27;;;;;;;3.20;1.90;;;;;;;20.12;39.62;97571.52;105734;1282;22603;-81
2022/05/23 10:48:23;;;;;;;4.30;1.90;;;;;;;19.94;40.03;97569.16;105306;1282;25744;-81
2022/05/23 10:50:54;;;;;;;4.80;1.70;;;;;;;19.93;39.42;97565.95;106188;1276;22594;-80
2022/05/23 10:53:59;;;;;;;1.90;1.50;;;;;;;19.79;39.42;97566.43;106119;1276;22563;-80
2022/05/23 10:56:51;;;;;;;1.70;1.40;;;;;;;19.73;38.95;97565.88;106198;1276;24294;-79
2022/05/23 10:59:23;;;;;;;1.90;1.70;;;;;;;19.63;39.52;97562.98;106220;1276;24205;-80
2022/05/23 11:02:32;;;;;;;6.20;2.20;;;;;;;19.59;39.40;97558.98;106245;1276;22568;-80
2022/05/23 11:05:23;;;;;;;2.10;1.80;;;;;;;19.47;39.46;97555.20;105873;1276;22688;-79
2022/05/23 11:08:05;;;;;;;2.40;1.60;;;;;;;19.75;39.58;97554.27;106200;1277;23865;-80
2022/05/23 11:10:39;;;;;;;4.80;1.60;;;;;;;20.25;39.61;97548.33;106392;1275;24313;-78
2022/05/23 11:13:20;;;;;;;;;;;;;;;20.66;39.09;97541.52;106239;1276;25384;-77
2022/05/23 11:16:14;;;;;;;1.90;1.30;;;;;;;21.13;39.16;97541.23;106858;1277;22476;-78
2022/05/23 11:19:15;;;;;;;2.90;1.40;;;;;;;21.61;37.96;97537.67;107889;1277;22553;-77
2022/05/23 11:21:51;;;;;;;2.90;1.50;;;;;;;21.80;38.26;97534.58;108425;1277;22580;-80
2022/05/23 11:24:22;;;;;;;;;;;;;;;21.90;37.36;97532.86;107062;1277;22566;-80
2022/05/23 11:33:41;;;;;;;2.40;1.60;;;;;;;21.76;37.97;97532.13;106749;1277;22580;-82
2022/05/23 11:35:31;;;;;;;2.10;1.50;;;;;;;21.39;36.60;97521.11;106457;1277;22579;-81
2022/05/23 11:38:01;;;;;;;3.50;1.90;;;;;;;21.09;36.22;97522.08;106398;1277;23080;-82
2022/05/23 11:40:38;;;;;;;2.60;1.90;;;;;;;20.85;36.42;97521.70;106430;1277;22599;-81
2022/05/23 11:43:11;;;;;;;2.90;1.90;;;;;;;20.63;35.58;97516.06;106437;1277;23943;-84
2022/05/23 11:45:59;;;;;;;4.80;1.80;;;;;;;20.33;36.68;97522.86;106539;1277;23394;-82
2022/05/23 11:48:34;;;;;;;2.00;1.70;;;;;;;20.15;36.59;97517.80;106529;1277;22575;-85
2022/05/23 11:51:10;;;;;;;;;;;;;;;20.09;37.28;97515.14;106519;1278;26278;-86
2022/05/23 11:54:06;;;;;;;5.00;1.70;;;;;;;19.98;37.03;97515.08;106402;1277;24093;-85
2022/05/23 11:56:43;;;;;;;1.50;1.40;;;;;;;19.83;37.71;97514.79;106366;1277;22542;-85
2022/05/23 11:59:31;;;;;;;4.10;1.70;;;;;;;19.87;37.59;97514.93;106299;1277;26572;-83
2022/05/23 12:02:08;;;;;;;1.90;1.60;;;;;;;19.84;37.75;97512.06;106331;1276;22587;-82
2022/05/23 12:04:49;;;;;;;3.50;2.00;;;;;;;19.76;37.89;97511.16;106430;1276;24333;-82
2022/05/23 12:07:37;;;;;;;5.00;2.10;;;;;;;19.57;38.03;97504.77;106524;1275;22609;-83
2022/05/23 12:10:24;;;;;;;3.90;2.00;;;;;;;19.53;38.34;97507.75;106474;1275;23824;-83
2022/05/23 12:12:58;;;;;;;17.40;1.90;;;;;;;19.62;38.84;97505.88;106417;1276;22614;-84
2022/05/23 12:16:17;;;;;;;3.00;2.10;;;;;;;19.87;38.71;97500.61;106328;1277;22635;-84
2022/05/23 12:18:48;;;;;;;8.20;1.90;;;;;;;20.08;38.43;97500.35;105895;1282;23643;-83
2022/05/23 12:21:34;;;;;;;2.20;1.70;;;;;;;20.50;38.08;97495.71;105868;1282;25957;-82
2022/05/23 12:24:23;;;;;;;2.00;1.70;;;;;;;20.88;38.05;97494.96;105709;1282;25616;-83
2022/05/23 12:27:27;;;;;;;6.20;2.20;;;;;;;21.26;37.84;97487.73;105796;1282;25288;-82
2022/05/23 12:30:17;;;;;;;5.50;1.90;;;;;;;21.24;37.42;97490.12;105895;1282;23527;-83
2022/05/23 12:32:58;;;;;;;4.00;2.00;;;;;;;21.17;38.13;97485.21;105696;1282;22715;-82
2022/05/23 12:35:57;;;;;;;5.10;2.10;;;;;;;21.33;37.54;97480.97;105722;1282;22949;-82
2022/05/23 12:39:01;;;;;;;6.90;2.60;;;;;;;21.66;37.52;97476.83;105587;1282;22672;-81
2022/05/23 12:41:38;;;;;;;4.70;2.70;;;;;;;22.12;37.17;97468.16;105865;1282;24470;-82
2022/05/23 12:44:33;;;;;;;7.60;3.90;;;;;;;22.46;36.62;97466.10;105807;1282;23330;-81
2022/05/23 12:47:43;;;;;;;6.30;3.10;;;;;;;22.73;36.38;97463.73;105797;1282;22826;-81
2022/05/23 12:50:32;;;;;;;7.90;2.60;;;;;;;23.13;35.95;97453.84;105365;1282;22544;-80
2022/05/23 12:53:37;;;;;;;7.50;2.30;;;;;;;23.31;35.20;97452.81;105747;1282;25437;-81
2022/05/23 12:56:24;;;;;;;3.70;2.40;;;;;;;23.45;34.85;97448.95;106413;1277;25435;-81
2022/05/23 12:59:10;;;;;;;5.20;2.10;;;;;;;23.67;34.28;97447.13;106562;1278;22629;-82
2022/05/23 13:01:43;;;;;;;5.30;2.00;;;;;;;23.83;34.82;97439.00;106292;1277;22702;-83
2022/05/23 13:04:21;;;;;;;7.20;2.10;;;;;;;24.03;34.06;97436.49;106278;1277;22535;-82